createdAt,value
2019-04-23T00:00:03.355Z,4.00
2019-04-23T00:02:18.592Z,3.87
2019-04-23T00:04:49.743Z,4.10
2019-04-23T00:10:01.311Z,4.30
2019-04-23T00:12:38.952Z,4.23
2019-04-23T00:15:04.366Z,4.17
2019-04-23T00:17:40.287Z,5.20
2019-04-23T00:20:06.189Z,4.70
2019-04-23T00:22:49.650Z,5.40
2019-04-23T00:25:45.615Z,5.27
2019-04-23T00:28:09.498Z,5.67
2019-04-23T00:33:05.818Z,5.27
2019-04-23T00:35:38.379Z,5.20
2019-04-23T00:38:11.887Z,5.27
2019-04-23T00:40:38.932Z,6.30
2019-04-23T00:48:14.974Z,5.90
2019-04-23T00:50:57.408Z,5.87
2019-04-23T00:53:17.413Z,5.50
2019-04-23T00:55:48.671Z,6.33
2019-04-23T00:58:25.072Z,6.40
2019-04-23T01:03:17.420Z,6.50
2019-04-23T01:05:46.914Z,6.27
2019-04-23T01:08:26.351Z,6.10
2019-04-23T01:11:06.328Z,6.07
2019-04-23T01:13:37.794Z,6.47
2019-04-23T01:16:08.615Z,6.37
2019-04-23T01:20:54.991Z,6.63
2019-04-23T01:23:53.871Z,6.90
2019-04-23T01:26:40.540Z,7.50
2019-04-23T01:29:14.726Z,7.30
2019-04-23T01:31:49.061Z,7.87
2019-04-23T01:34:19.705Z,8.40
2019-04-23T01:36:48.672Z,8.00
2019-04-23T01:39:15.794Z,7.93
2019-04-23T01:41:58.003Z,8.53
2019-04-23T01:44:34.075Z,7.73
2019-04-23T01:46:54.212Z,7.90
2019-04-23T01:49:30.708Z,7.80
2019-04-23T01:52:01.045Z,8.23
2019-04-23T01:54:26.060Z,8.30
2019-04-23T01:56:56.586Z,7.60
2019-04-23T01:59:34.776Z,8.13
2019-04-23T02:02:01.487Z,8.67
2019-04-23T02:04:36.272Z,9.00
2019-04-23T02:07:05.788Z,9.43
2019-04-23T02:09:45.340Z,8.80
2019-04-23T02:12:11.587Z,9.37
2019-04-23T02:14:48.228Z,9.67
2019-04-23T02:17:34.056Z,9.57
2019-04-23T02:19:46.171Z,9.20
2019-04-23T02:22:38.482Z,9.77
2019-04-23T02:25:30.306Z,9.90
2019-04-23T02:27:54.421Z,10.33
2019-04-23T02:30:49.514Z,9.87
2019-04-23T02:33:01.005Z,9.80
2019-04-23T02:35:32.652Z,10.27
2019-04-23T02:38:03.420Z,10.43
2019-04-23T02:40:45.385Z,10.30
2019-04-23T02:43:26.013Z,10.50
2019-04-23T02:45:27.649Z,10.37
2019-04-23T02:53:09.422Z,10.40
2019-04-23T02:55:43.250Z,10.10
2019-04-23T02:58:16.036Z,10.20
2019-04-23T03:00:43.613Z,10.77
2019-04-23T03:05:46.544Z,10.60
2019-04-23T03:08:06.267Z,10.67
2019-04-23T03:13:44.546Z,10.20
2019-04-23T03:21:31.372Z,10.43
2019-04-23T03:29:10.998Z,10.93
2019-04-23T03:35:10.208Z,10.97
2019-04-23T03:39:03.081Z,10.80
2019-04-23T03:44:14.567Z,11.10
2019-04-23T03:46:46.667Z,11.13
2019-04-23T03:49:19.462Z,11.63
2019-04-23T03:51:52.253Z,11.50
2019-04-23T03:57:13.513Z,11.23
2019-04-23T04:02:00.566Z,11.60
2019-04-23T04:07:01.276Z,12.23
2019-04-23T04:11:56.706Z,12.53
2019-04-23T04:14:49.217Z,11.37
2019-04-23T04:17:09.673Z,11.87
2019-04-23T04:19:40.000Z,11.20
2019-04-23T04:22:13.515Z,12.73
2019-04-23T04:24:36.806Z,11.77
2019-04-23T04:27:10.194Z,11.87
2019-04-23T04:32:03.562Z,12.17
2019-04-23T04:35:12.902Z,11.87
2019-04-23T04:42:10.175Z,12.00
2019-04-23T04:45:04.833Z,11.67
2019-04-23T04:47:21.084Z,11.63
2019-04-23T04:52:42.009Z,11.80
2019-04-23T04:54:41.948Z,11.07
2019-04-23T04:57:30.215Z,10.77
2019-04-23T05:07:40.469Z,10.60
2019-04-23T05:15:04.633Z,11.03
2019-04-23T05:17:47.717Z,10.20
2019-04-23T05:20:05.097Z,9.80
2019-04-23T05:22:45.243Z,10.13
2019-04-23T05:25:01.983Z,10.20
2019-04-23T05:27:44.711Z,10.40
2019-04-23T05:30:07.845Z,10.30
2019-04-23T05:32:43.154Z,9.87
2019-04-23T05:35:13.340Z,10.13
2019-04-23T05:37:55.691Z,10.27
2019-04-23T05:40:28.195Z,10.20
2019-04-23T05:45:31.544Z,10.37
2019-04-23T05:47:48.211Z,10.03
2019-04-23T05:50:26.028Z,9.90
2019-04-23T05:55:13.245Z,10.37
2019-04-23T05:57:43.787Z,10.10
2019-04-23T06:00:26.153Z,10.67
2019-04-23T06:02:59.307Z,9.87
2019-04-23T06:05:24.807Z,9.70
2019-04-23T06:07:57.728Z,10.20
2019-04-23T06:10:27.326Z,9.63
2019-04-23T06:12:59.689Z,10.47
2019-04-23T06:15:30.334Z,9.83
2019-04-23T06:18:02.262Z,10.43
2019-04-23T06:20:36.570Z,10.40
2019-04-23T06:23:05.735Z,9.57
2019-04-23T06:28:08.214Z,9.60
2019-04-23T06:33:19.907Z,9.50
2019-04-23T06:35:36.236Z,10.60
2019-04-23T06:40:41.908Z,10.40
2019-04-23T06:45:57.527Z,9.40
2019-04-23T06:51:04.649Z,9.97
2019-04-23T06:53:30.590Z,10.37
2019-04-23T06:58:37.012Z,10.50
2019-04-23T07:01:05.294Z,10.30
2019-04-23T07:03:44.895Z,10.27
2019-04-23T07:11:20.114Z,10.37
2019-04-23T07:16:14.684Z,10.93
2019-04-23T07:18:47.109Z,10.93
2019-04-23T07:24:00.783Z,10.47
2019-04-23T07:26:29.775Z,11.87
2019-04-23T07:28:56.388Z,10.67
2019-04-23T07:31:40.959Z,10.97
2019-04-23T07:34:01.322Z,10.90
2019-04-23T07:36:30.743Z,10.97
2019-04-23T07:41:56.291Z,10.93
2019-04-23T07:47:11.571Z,11.37
2019-04-23T07:49:31.094Z,11.07
2019-04-23T07:52:06.644Z,11.40
2019-04-23T07:54:28.981Z,10.90
2019-04-23T07:57:12.226Z,10.93
2019-04-23T07:59:33.540Z,10.63
2019-04-23T08:02:06.227Z,11.40
2019-04-23T08:04:49.227Z,10.53
2019-04-23T08:07:08.407Z,10.90
2019-04-23T08:09:43.075Z,10.97
2019-04-23T08:12:12.420Z,11.10
2019-04-23T08:14:51.261Z,10.90
2019-04-23T08:17:10.763Z,10.93
2019-04-23T08:27:18.119Z,10.60
2019-04-23T08:29:47.725Z,10.80
2019-04-23T08:32:19.502Z,10.93
2019-04-23T08:34:58.437Z,11.27
2019-04-23T08:37:56.988Z,10.47
2019-04-23T08:39:58.542Z,10.73
2019-04-23T08:42:36.554Z,10.67
2019-04-23T08:47:59.124Z,10.43
2019-04-23T08:50:30.497Z,10.33
2019-04-23T08:53:08.681Z,10.30
2019-04-23T08:55:34.983Z,10.53
2019-04-23T08:57:59.823Z,10.30
2019-04-23T09:00:44.394Z,10.40
2019-04-23T09:03:04.647Z,9.97
2019-04-23T09:05:40.900Z,10.40
2019-04-23T09:10:41.046Z,9.80
2019-04-23T09:13:36.415Z,10.37
2019-04-23T09:15:44.570Z,9.63
2019-04-23T09:18:15.865Z,9.83
2019-04-23T09:20:55.161Z,9.70
2019-04-23T09:23:34.912Z,9.53
2019-04-23T09:25:58.025Z,9.17
2019-04-23T09:31:15.190Z,8.83
2019-04-23T09:33:50.044Z,8.73
2019-04-23T09:36:23.263Z,8.90
2019-04-23T09:38:53.657Z,8.40
2019-04-23T09:41:37.928Z,8.17
2019-04-23T09:44:14.504Z,7.80
2019-04-23T09:46:40.513Z,8.27
2019-04-23T09:54:23.662Z,8.53
2019-04-23T09:56:41.454Z,8.47
2019-04-23T10:01:36.325Z,8.20
2019-04-23T10:04:03.970Z,7.90
2019-04-23T10:06:26.614Z,8.23
2019-04-23T10:08:56.463Z,8.43
2019-04-23T10:11:24.395Z,8.40
2019-04-23T10:13:54.702Z,8.00
2019-04-23T10:16:27.986Z,8.50
2019-04-23T10:18:57.255Z,7.80
2019-04-23T10:21:27.015Z,8.13
2019-04-23T10:23:57.123Z,8.13
2019-04-23T10:26:28.295Z,7.70
2019-04-23T10:29:02.466Z,7.97
2019-04-23T10:31:33.355Z,7.83
2019-04-23T10:34:04.396Z,8.40
2019-04-23T10:36:36.109Z,7.80
2019-04-23T10:39:14.691Z,7.93
2019-04-23T10:41:42.506Z,7.93
2019-04-23T10:44:19.265Z,7.40
2019-04-23T10:47:26.983Z,7.43
2019-04-23T10:52:26.467Z,7.50
2019-04-23T10:57:26.477Z,7.70
2019-04-23T10:59:53.932Z,8.17
2019-04-23T11:02:39.126Z,7.80
2019-04-23T11:15:32.479Z,7.77
2019-04-23T11:20:29.955Z,7.23
2019-04-23T11:25:33.035Z,7.50
2019-04-23T11:27:59.758Z,7.07
2019-04-23T11:30:33.281Z,6.93
2019-04-23T11:38:01.637Z,7.70
2019-04-23T11:40:33.908Z,7.47
2019-04-23T11:43:13.172Z,7.83
2019-04-23T11:48:36.605Z,7.67
2019-04-23T11:51:21.818Z,7.27
2019-04-23T11:53:22.870Z,7.30
2019-04-23T11:56:02.622Z,7.07
2019-04-23T11:58:23.341Z,6.90
2019-04-23T12:01:10.937Z,7.50
2019-04-23T12:03:50.825Z,6.80
2019-04-23T12:06:25.079Z,6.70
2019-04-23T12:09:09.802Z,6.47
2019-04-23T12:14:22.821Z,6.93
2019-04-23T12:17:08.353Z,6.73
2019-04-23T12:24:58.191Z,6.47
2019-04-23T12:27:06.157Z,6.20
2019-04-23T12:45:27.440Z,6.67
2019-04-23T12:47:53.718Z,5.80
2019-04-23T12:50:37.996Z,6.30
2019-04-23T12:52:47.820Z,6.40
2019-04-23T12:57:46.127Z,5.83
2019-04-23T13:00:23.321Z,6.10
2019-04-23T13:05:26.002Z,6.50
2019-04-23T13:07:54.033Z,6.07
2019-04-23T13:10:30.183Z,6.30
2019-04-23T13:13:11.342Z,6.40
2019-04-23T13:17:53.866Z,6.03
2019-04-23T13:20:27.879Z,6.60
2019-04-23T13:23:16.907Z,5.60
2019-04-23T13:25:47.384Z,6.17
2019-04-23T13:28:12.955Z,6.27
2019-04-23T13:30:54.861Z,5.83
2019-04-23T13:33:30.041Z,6.20
2019-04-23T13:36:11.329Z,6.03
2019-04-23T13:41:01.370Z,5.80
2019-04-23T13:43:40.481Z,6.60
2019-04-23T13:48:19.890Z,6.40
2019-04-23T13:53:49.519Z,6.23
2019-04-23T13:56:06.229Z,6.70
2019-04-23T13:58:34.453Z,6.20
2019-04-23T14:03:40.801Z,5.80
2019-04-23T14:06:20.800Z,6.20
2019-04-23T14:09:20.209Z,5.90
2019-04-23T14:11:19.530Z,5.93
2019-04-23T14:18:58.533Z,6.30
2019-04-23T14:44:10.741Z,6.77
2019-04-23T14:49:30.583Z,6.50
2019-04-23T14:51:46.836Z,6.33
2019-04-23T14:54:12.846Z,6.27
2019-04-23T14:56:44.772Z,6.30
2019-04-23T14:59:12.385Z,6.27
2019-04-23T15:01:48.919Z,6.47
2019-04-23T15:04:23.471Z,6.20
2019-04-23T15:09:27.306Z,6.60
2019-04-23T15:12:04.823Z,7.13
2019-04-23T15:14:23.243Z,7.43
2019-04-23T15:16:59.954Z,6.70
2019-04-23T15:19:36.830Z,6.47
2019-04-23T15:22:09.974Z,7.30
2019-04-23T15:25:15.227Z,7.53
2019-04-23T15:29:24.895Z,6.67
2019-04-23T15:32:07.768Z,6.60
2019-04-23T15:34:45.194Z,7.33
2019-04-23T15:39:47.569Z,6.77
2019-04-23T15:42:16.742Z,7.27
2019-04-23T15:44:48.829Z,7.43
2019-04-23T15:47:24.980Z,7.40
2019-04-23T15:49:51.457Z,7.10
2019-04-23T15:52:18.844Z,7.03
2019-04-23T15:55:00.537Z,7.23
2019-04-23T15:57:32.584Z,7.20
2019-04-23T15:59:55.587Z,7.57
2019-04-23T16:01:56.725Z,7.50
2019-04-23T16:04:27.625Z,7.43
2019-04-23T16:06:57.205Z,7.60
2019-04-23T16:10:04.566Z,7.37
2019-04-23T16:12:25.857Z,7.63
2019-04-23T16:15:03.719Z,7.70
2019-04-23T16:22:39.750Z,7.47
2019-04-23T16:27:50.424Z,8.10
2019-04-23T16:30:21.889Z,7.57
2019-04-23T16:35:43.630Z,7.33
2019-04-23T16:38:18.002Z,8.07
2019-04-23T16:40:39.444Z,7.57
2019-04-23T16:43:08.920Z,7.70
2019-04-23T16:45:36.892Z,7.80
2019-04-23T16:51:12.280Z,7.67
2019-04-23T16:53:25.270Z,8.07
2019-04-23T16:55:50.032Z,8.17
2019-04-23T17:05:59.441Z,8.40
2019-04-23T17:13:34.510Z,7.90
2019-04-23T17:18:31.289Z,7.57
2019-04-23T17:20:56.288Z,7.80
2019-04-23T17:26:04.125Z,7.20
2019-04-23T17:28:39.507Z,7.80
2019-04-23T17:31:27.399Z,8.10
2019-04-23T17:33:52.026Z,7.80
2019-04-23T17:42:00.517Z,7.77
2019-04-23T17:46:50.905Z,7.93
2019-04-23T17:49:30.066Z,7.47
2019-04-23T17:52:01.037Z,7.93
2019-04-23T17:54:26.949Z,8.30
2019-04-23T17:57:01.528Z,7.87
2019-04-23T17:59:28.309Z,8.13
2019-04-23T18:02:29.781Z,7.93
2019-04-23T18:04:38.732Z,8.63
2019-04-23T18:07:06.268Z,8.90
2019-04-23T18:09:36.829Z,8.17
2019-04-23T18:12:12.944Z,8.13
2019-04-23T18:14:40.778Z,9.00
2019-04-23T18:17:12.961Z,8.23
2019-04-23T18:20:05.326Z,8.37
2019-04-23T18:22:42.260Z,8.17
2019-04-23T18:25:37.537Z,8.90
2019-04-23T18:30:28.993Z,8.20
2019-04-23T18:33:51.207Z,8.70
2019-04-23T18:35:44.292Z,8.83
2019-04-23T18:38:29.080Z,9.30
2019-04-23T18:41:02.371Z,8.77
2019-04-23T18:43:30.896Z,9.00
2019-04-23T18:46:16.660Z,9.10
2019-04-23T18:56:11.333Z,10.07
2019-04-23T18:58:48.621Z,10.87
2019-04-23T19:09:23.421Z,10.33
2019-04-23T19:12:09.279Z,10.90
2019-04-23T19:14:25.653Z,12.10
2019-04-23T19:17:08.968Z,11.07
2019-04-23T19:19:28.647Z,11.20
2019-04-23T19:24:28.395Z,12.20
2019-04-23T19:27:11.947Z,11.77
2019-04-23T19:29:39.594Z,11.43
2019-04-23T19:34:36.270Z,13.03
2019-04-23T19:44:44.228Z,12.60
2019-04-23T19:49:55.170Z,12.53
2019-04-23T19:52:46.616Z,12.50
2019-04-23T19:57:17.826Z,13.53
2019-04-23T20:00:02.556Z,13.73
2019-04-23T20:02:31.658Z,13.77
2019-04-23T20:04:47.475Z,13.17
2019-04-23T20:07:22.677Z,13.87
2019-04-23T20:09:51.952Z,13.43
2019-04-23T20:12:26.170Z,13.17
2019-04-23T20:14:51.821Z,11.83
2019-04-23T20:17:39.444Z,12.33
2019-04-23T20:22:34.857Z,12.90
2019-04-23T20:25:18.649Z,13.33
2019-04-23T20:27:32.025Z,13.37
2019-04-23T20:35:18.063Z,13.20
2019-04-23T20:38:09.675Z,13.13
2019-04-23T20:40:33.022Z,13.30
2019-04-23T20:42:40.747Z,12.50
2019-04-23T20:45:16.265Z,13.40
2019-04-23T20:47:48.247Z,13.60
2019-04-23T20:50:09.923Z,13.20
2019-04-23T20:52:46.961Z,13.93
2019-04-23T20:55:45.296Z,13.87
2019-04-23T20:57:54.978Z,13.57
2019-04-23T21:00:43.298Z,14.03
2019-04-23T21:03:41.478Z,14.13
2019-04-23T21:05:52.706Z,13.93
2019-04-23T21:08:14.914Z,14.70
2019-04-23T21:10:55.367Z,14.43
2019-04-23T21:13:27.536Z,13.77
2019-04-23T21:18:26.449Z,15.27
2019-04-23T21:20:48.816Z,14.57
2019-04-23T21:23:17.698Z,14.70
2019-04-23T21:31:22.857Z,15.57
2019-04-23T21:33:37.727Z,15.00
2019-04-23T21:41:29.335Z,14.23
2019-04-23T21:53:56.883Z,15.80
2019-04-23T22:04:15.663Z,15.47
2019-04-23T22:09:15.981Z,16.03
2019-04-23T22:11:57.318Z,14.80
2019-04-23T22:16:58.011Z,15.63
2019-04-23T22:19:26.855Z,15.87
2019-04-23T22:21:54.463Z,16.23
2019-04-23T22:24:12.381Z,15.93
2019-04-23T22:26:45.382Z,16.03
2019-04-23T22:29:30.802Z,17.10
2019-04-23T22:31:52.175Z,17.23
2019-04-23T22:37:04.584Z,16.90
2019-04-23T22:39:31.734Z,16.67
2019-04-23T22:42:03.246Z,17.00
2019-04-23T22:44:46.880Z,16.87
2019-04-23T22:47:03.965Z,16.47
2019-04-23T22:49:45.369Z,17.97
2019-04-23T22:52:09.911Z,16.87
2019-04-23T22:54:41.954Z,17.00
2019-04-23T22:57:04.482Z,16.63
2019-04-23T23:07:48.976Z,17.90
2019-04-23T23:10:12.890Z,17.40
2019-04-23T23:12:51.369Z,17.57
2019-04-23T23:15:15.975Z,17.23
2019-04-23T23:17:56.292Z,16.63
2019-04-23T23:22:57.115Z,17.70
2019-04-23T23:25:23.845Z,17.10
2019-04-23T23:27:55.173Z,17.03
2019-04-23T23:30:19.504Z,16.43
2019-04-23T23:33:00.636Z,16.17
2019-04-23T23:35:21.820Z,16.87
2019-04-23T23:37:54.311Z,16.27
2019-04-23T23:40:30.329Z,16.27
2019-04-23T23:43:05.959Z,16.23
2019-04-23T23:45:25.280Z,17.93
2019-04-23T23:50:25.216Z,17.37
2019-04-23T23:53:04.271Z,17.50
2019-04-23T23:55:31.856Z,17.57
2019-04-23T23:58:10.962Z,18.03
